Time;durP1;ratioP1;P1;durP2;ratioP2;P2;SDS_P1;SDS_P2;PMS_P1;PMS_P2;Temp;Humidity;BMP_temperature;BMP_pressure;BME280_temperature;BME280_humidity;BME280_pressure;Samples;Min_cycle;Max_cycle;Signal;HPM_P1;HPM_P2
2023/03/28 00:01:09;;;;;;;14.65;13.80;;;10.40;99.90;;;;;;6113193;23;20009;-92
2023/03/28 00:03:42;;;;;;;14.20;13.20;;;10.30;99.90;;;;;;6141611;23;20013;-92
2023/03/28 00:06:17;;;;;;;13.85;13.15;;;10.30;99.90;;;;;;6111481;23;20009;-94
2023/03/28 00:08:52;;;;;;;14.30;13.40;;;10.20;99.90;;;;;;6108864;23;20017;-95
2023/03/28 00:11:21;;;;;;;14.18;13.20;;;10.20;99.90;;;;;;6118092;23;20012;-94
2023/03/28 00:14:00;;;;;;;14.10;13.20;;;10.20;99.90;;;;;;6102201;23;20022;-94
2023/03/28 00:16:38;;;;;;;13.85;13.15;;;10.20;99.90;;;;;;6103019;23;20060;-95
2023/03/28 00:19:15;;;;;;;13.77;13.07;;;10.10;99.90;;;;;;6063543;23;20370;-93
2023/03/28 00:21:50;;;;;;;14.00;13.10;;;10.20;99.90;;;;;;6053161;23;20022;-95
2023/03/28 00:24:20;;;;;;;14.77;13.68;;;10.10;99.90;;;;;;6069377;23;20007;-94
2023/03/28 00:27:27;;;;;;;14.25;13.35;;;10.10;99.90;;;;;;6049218;23;19991;-95
2023/03/28 00:30:03;;;;;;;13.57;12.77;;;10.00;99.90;;;;;;6051363;23;20006;-94
2023/03/28 00:32:57;;;;;;;13.63;12.82;;;10.00;99.90;;;;;;6072154;23;20006;-95
2023/03/28 00:35:27;;;;;;;13.45;12.65;;;10.00;99.90;;;;;;6048006;23;20053;-93
2023/03/28 00:37:58;;;;;;;13.45;12.50;;;10.00;99.90;;;;;;6038801;23;20022;-93
2023/03/28 00:40:46;;;;;;;13.75;12.80;;;10.00;99.90;;;;;;6162652;23;20143;-94
2023/03/28 00:43:16;;;;;;;12.80;12.00;;;10.00;99.90;;;;;;6162589;23;20459;-94
2023/03/28 00:45:51;;;;;;;13.13;12.18;;;10.00;99.90;;;;;;6188795;23;20035;-95
2023/03/28 00:48:21;;;;;;;13.30;12.30;;;10.00;99.90;;;;;;6166569;23;20008;-93
2023/03/28 00:51:02;;;;;;;12.43;11.40;;;10.00;99.90;;;;;;6166962;23;20039;-94
2023/03/28 00:53:32;;;;;;;12.35;11.57;;;10.00;99.90;;;;;;6167332;23;20091;-94
2023/03/28 00:56:03;;;;;;;12.18;11.30;;;10.00;99.90;;;;;;6166612;23;20087;-95
2023/03/28 00:58:38;;;;;;;12.02;11.15;;;10.00;99.90;;;;;;6165659;23;20005;-94
2023/03/28 01:01:21;;;;;;;11.93;11.00;;;9.90;99.90;;;;;;6166790;23;20157;-92
2023/03/28 01:04:13;;;;;;;11.93;11.10;;;9.90;99.90;;;;;;6163582;23;20062;-94
2023/03/28 01:06:45;;;;;;;11.30;10.70;;;9.90;99.90;;;;;;6042981;23;20377;-94
2023/03/28 01:09:30;;;;;;;12.10;11.10;;;9.90;99.90;;;;;;6042370;23;20448;-94
2023/03/28 01:12:45;;;;;;;11.10;10.30;;;9.90;99.90;;;;;;6163246;23;20432;-95
2023/03/28 01:16:11;;;;;;;11.48;10.50;;;9.90;99.90;;;;;;6015768;23;20008;-93
2023/03/28 01:19:40;;;;;;;;;;;;;;;;;;;;;
2023/03/28 01:22:52;;;;;;;11.40;10.50;;;9.80;99.90;;;;;;6158255;23;20022;-93
2023/03/28 01:29:36;;;;;;;11.57;10.80;;;9.80;99.90;;;;;;6096242;23;20017;-93
2023/03/28 01:32:57;;;;;;;11.25;10.55;;;9.80;99.90;;;;;;6081733;23;20021;-95
2023/03/28 01:36:28;;;;;;;11.20;10.50;;;9.80;99.90;;;;;;5992028;23;20004;-94
2023/03/28 01:39:47;;;;;;;11.80;10.80;;;9.90;99.90;;;;;;5991549;23;20099;-95
2023/03/28 01:43:06;;;;;;;;;;;;;;;;;;;;;
2023/03/28 01:46:02;;;;;;;11.20;10.50;;;10.00;99.90;;;;;;6032374;23;20007;-93
2023/03/28 01:49:15;;;;;;;10.85;10.25;;;10.00;99.90;;;;;;6051817;23;20018;-94
2023/03/28 01:56:21;;;;;;;11.13;10.43;;;9.90;99.90;;;;;;6044286;23;20018;-94
2023/03/28 01:59:27;;;;;;;11.30;10.70;;;10.00;99.90;;;;;;5997521;23;20025;-94
2023/03/28 02:02:51;;;;;;;11.88;10.82;;;10.00;99.90;;;;;;5919980;24;20578;-95
2023/03/28 02:05:38;;;;;;;12.27;11.10;;;10.00;99.90;;;;;;5946796;24;20036;-95
2023/03/28 02:08:17;;;;;;;12.95;11.48;;;10.00;99.90;;;;;;5928513;24;20013;-95
2023/03/28 02:10:52;;;;;;;11.52;10.70;;;10.00;99.90;;;;;;5928436;23;20016;-94
2023/03/28 02:13:40;;;;;;;11.80;10.85;;;9.90;99.90;;;;;;6007683;23;20482;-93
2023/03/28 02:16:27;;;;;;;11.50;10.60;;;10.00;99.90;;;;;;6009143;23;20023;-95
2023/03/28 02:19:03;;;;;;;14.18;12.70;;;10.00;99.90;;;;;;6031953;23;20023;-93
2023/03/28 02:21:57;;;;;;;12.35;11.32;;;10.00;99.90;;;;;;6032313;23;20019;-94
2023/03/28 02:24:41;;;;;;;11.18;10.30;;;9.90;99.90;;;;;;6032662;23;20008;-95
2023/03/28 02:27:19;;;;;;;11.93;10.90;;;10.00;99.90;;;;;;5984995;23;20020;-94
2023/03/28 02:29:57;;;;;;;11.68;10.80;;;9.90;99.90;;;;;;6089104;23;20034;-95
2023/03/28 02:32:49;;;;;;;13.00;11.32;;;9.90;99.90;;;;;;6047502;23;20030;-94
2023/03/28 02:35:26;;;;;;;11.88;10.77;;;9.90;99.90;;;;;;6046632;23;20010;-94
2023/03/28 02:38:36;;;;;;;12.00;10.80;;;9.90;99.90;;;;;;6042326;23;20014;-94
2023/03/28 02:41:51;;;;;;;10.80;9.88;;;9.90;99.90;;;;;;6166889;23;20023;-94
2023/03/28 02:44:48;;;;;;;9.80;9.00;;;9.90;99.90;;;;;;6108490;23;20321;-93
2023/03/28 02:47:30;;;;;;;9.40;8.63;;;9.80;99.90;;;;;;6133366;23;20013;-95
2023/03/28 02:50:39;;;;;;;10.02;9.05;;;9.80;99.90;;;;;;6101531;23;20007;-94
2023/03/28 02:53:46;;;;;;;11.55;8.43;;;9.80;99.90;;;;;;6067912;23;20011;-93
2023/03/28 02:57:03;;;;;;;13.15;8.55;;;9.70;99.90;;;;;;6044990;23;20011;-93
2023/03/28 02:59:42;;;;;;;9.38;7.90;;;9.80;99.90;;;;;;6045698;23;20014;-94
2023/03/28 03:02:16;;;;;;;12.35;7.90;;;9.70;99.90;;;;;;6043040;23;20444;-94
2023/03/28 03:04:43;;;;;;;8.32;7.60;;;9.70;99.90;;;;;;6041849;23;20018;-94
2023/03/28 03:07:10;;;;;;;9.70;7.68;;;9.70;99.90;;;;;;6041807;23;20007;-93
2023/03/28 03:09:37;;;;;;;7.63;7.00;;;9.70;99.90;;;;;;6065312;23;20011;-94
2023/03/28 03:12:08;;;;;;;8.18;7.13;;;9.70;99.90;;;;;;6042076;23;20007;-95
2023/03/28 03:14:41;;;;;;;14.38;7.80;;;9.70;99.90;;;;;;6066782;23;20082;-95
2023/03/28 03:17:28;;;;;;;25.13;10.20;;;9.70;99.90;;;;;;6066197;23;20017;-94
2023/03/28 03:19:55;;;;;;;21.17;11.63;;;9.70;99.90;;;;;;6063969;23;20022;-93
2023/03/28 03:22:22;;;;;;;29.92;16.17;;;9.70;99.90;;;;;;6042098;23;20348;-93
2023/03/28 03:24:51;;;;;;;18.00;12.30;;;9.70;99.90;;;;;;6067227;23;20014;-95
2023/03/28 03:27:21;;;;;;;27.77;14.90;;;9.70;99.90;;;;;;6042285;23;20014;-94
2023/03/28 03:29:55;;;;;;;11.13;9.60;;;9.80;99.90;;;;;;6044086;23;20019;-93
2023/03/28 03:32:38;;;;;;;16.55;11.98;;;9.90;99.90;;;;;;6046674;23;20425;-94
2023/03/28 03:35:06;;;;;;;15.00;11.13;;;10.00;99.90;;;;;;6042436;23;20041;-94
2023/03/28 03:37:35;;;;;;;21.25;12.73;;;10.10;99.90;;;;;;6042496;23;20010;-92
2023/03/28 03:40:08;;;;;;;18.00;14.05;;;10.10;99.90;;;;;;6091112;23;20029;-94
2023/03/28 03:42:46;;;;;;;22.85;15.05;;;10.20;99.90;;;;;;6075321;23;20044;-94
2023/03/28 03:45:18;;;;;;;15.90;12.75;;;10.30;99.90;;;;;;6075216;23;20006;-95
2023/03/28 03:47:48;;;;;;;17.70;12.20;;;10.30;99.90;;;;;;6071315;23;20011;-94
2023/03/28 04:16:19;;;;;;;14.88;13.55;;;10.10;99.90;;;;;;6184200;22;20019;-93
2023/03/28 04:19:09;;;;;;;15.13;13.45;;;10.10;99.90;;;;;;6262079;22;20011;-93
2023/03/28 04:21:41;;;;;;;17.27;13.65;;;10.10;99.90;;;;;;6256985;22;20015;-94
2023/03/28 04:24:08;;;;;;;15.05;13.15;;;10.10;99.90;;;;;;6251276;22;20014;-91
2023/03/28 04:26:39;;;;;;;17.88;13.65;;;10.10;99.90;;;;;;6276101;22;20008;-90
2023/03/28 04:29:11;;;;;;;16.73;14.32;;;10.10;99.90;;;;;;6251819;22;20398;-91
2023/03/28 04:31:40;;;;;;;15.23;13.88;;;10.10;99.90;;;;;;6276783;22;20011;-92
2023/03/28 04:34:38;;;;;;;16.30;14.57;;;10.10;99.90;;;;;;6203119;23;20076;-91
2023/03/28 04:37:17;;;;;;;17.88;15.43;;;10.10;99.90;;;;;;6160362;23;20015;-91
2023/03/28 04:39:52;;;;;;;34.30;19.40;;;10.10;99.90;;;;;;6160195;23;20009;-92
2023/03/28 04:42:31;;;;;;;22.60;16.85;;;10.20;99.90;;;;;;6184849;23;20145;-93
2023/03/28 04:45:25;;;;;;;18.92;14.88;;;10.20;99.90;;;;;;6163830;23;20013;-93
2023/03/28 04:47:52;;;;;;;17.17;15.82;;;10.30;99.90;;;;;;6159866;23;20008;-91
2023/03/28 04:50:21;;;;;;;17.80;16.33;;;10.30;99.90;;;;;;6184680;23;20084;-91
2023/03/28 04:54:05;;;;;;;;;;;;;;;;;;;;;
2023/03/28 04:57:04;;;;;;;18.83;17.17;;;10.40;99.90;;;;;;6088555;23;20057;-92
2023/03/28 04:59:43;;;;;;;20.17;18.50;;;10.30;99.90;;;;;;6130196;23;20092;-92
2023/03/28 05:02:15;;;;;;;19.77;18.33;;;10.40;99.90;;;;;;6160150;23;20024;-91
2023/03/28 05:05:01;;;;;;;20.23;18.42;;;10.40;99.90;;;;;;6160015;23;20040;-91
2023/03/28 05:07:28;;;;;;;26.80;21.50;;;10.40;99.90;;;;;;6159746;23;20097;-91
2023/03/28 05:09:58;;;;;;;21.38;19.25;;;10.40;99.90;;;;;;6188267;22;20011;-93
2023/03/28 05:12:32;;;;;;;20.27;18.38;;;10.40;99.90;;;;;;6275485;22;20008;-92
2023/03/28 05:15:05;;;;;;;21.38;19.25;;;10.40;99.90;;;;;;6284130;22;20019;-90
2023/03/28 05:17:39;;;;;;;20.20;18.63;;;10.50;99.90;;;;;;6277208;22;20012;-92
2023/03/28 05:20:20;;;;;;;20.23;18.35;;;10.50;99.90;;;;;;6252174;22;20516;-91
2023/03/28 05:22:54;;;;;;;21.15;19.52;;;10.50;99.90;;;;;;6251137;22;20039;-91
2023/03/28 05:25:21;;;;;;;19.63;17.73;;;10.70;99.90;;;;;;6276966;22;20095;-93
2023/03/28 05:27:50;;;;;;;17.52;16.20;;;11.10;99.90;;;;;;6245199;23;20020;-93
2023/03/28 05:30:17;;;;;;;16.98;15.80;;;11.80;99.90;;;;;;6194829;23;20011;-91
2023/03/28 05:32:44;;;;;;;19.17;17.48;;;12.70;99.90;;;;;;6196548;23;20005;-91
2023/03/28 05:35:14;;;;;;;19.20;17.65;;;13.10;99.90;;;;;;6195842;23;20004;-92
2023/03/28 05:37:42;;;;;;;21.55;19.30;;;13.80;99.90;;;;;;6195917;23;20024;-91
2023/03/28 05:40:11;;;;;;;21.85;19.95;;;14.00;99.90;;;;;;6194524;23;20445;-94
2023/03/28 05:42:40;;;;;;;20.05;18.83;;;13.90;99.90;;;;;;6196058;23;20369;-93
2023/03/28 05:45:16;;;;;;;20.63;19.10;;;13.70;99.90;;;;;;6197185;23;20452;-91
2023/03/28 05:48:07;;;;;;;20.55;18.98;;;14.30;99.90;;;;;;6201162;23;20012;-93
2023/03/28 05:50:36;;;;;;;21.23;19.52;;;14.40;99.90;;;;;;6197123;23;20008;-93
2023/03/28 05:53:06;;;;;;;20.95;19.35;;;14.90;99.90;;;;;;6196859;23;20065;-92
2023/03/28 05:55:33;;;;;;;21.05;19.35;;;14.70;99.90;;;;;;6198398;23;20040;-91
2023/03/28 05:58:00;;;;;;;21.42;19.58;;;14.70;99.90;;;;;;6202072;22;20426;-91
2023/03/28 06:00:36;;;;;;;20.95;19.35;;;15.00;99.90;;;;;;6278153;22;20008;-93
2023/03/28 06:03:03;;;;;;;21.75;19.85;;;15.00;99.90;;;;;;6278612;22;20035;-92
2023/03/28 06:05:33;;;;;;;21.80;19.85;;;15.10;99.90;;;;;;6253335;22;20011;-91
2023/03/28 06:08:08;;;;;;;21.38;19.73;;;14.70;99.90;;;;;;6276768;22;20016;-91
2023/03/28 06:10:36;;;;;;;21.75;19.85;;;14.40;99.90;;;;;;6277958;22;20007;-92
2023/03/28 06:13:23;;;;;;;21.67;19.95;;;14.40;99.90;;;;;;6267299;22;20087;-91
2023/03/28 06:15:50;;;;;;;21.35;19.58;;;14.10;99.90;;;;;;6277542;22;20430;-93
2023/03/28 06:18:20;;;;;;;21.95;19.98;;;13.40;99.90;;;;;;6277794;22;20429;-92
2023/03/28 06:20:49;;;;;;;21.58;19.73;;;13.00;99.90;;;;;;6277387;22;20015;-92
2023/03/28 06:23:16;;;;;;;21.35;19.27;;;12.90;99.90;;;;;;6277996;22;20003;-91
2023/03/28 06:25:43;;;;;;;22.17;20.10;;;12.90;99.90;;;;;;6277847;22;20019;-90
2023/03/28 06:28:14;;;;;;;20.10;18.40;;;12.80;99.90;;;;;;6277036;22;20027;-92
2023/03/28 06:31:01;;;;;;;20.77;18.92;;;12.60;99.90;;;;;;6278029;22;20057;-90
2023/03/28 06:33:27;;;;;;;19.50;18.08;;;12.50;99.90;;;;;;6252061;22;20012;-93
2023/03/28 06:35:54;;;;;;;20.13;18.42;;;12.50;99.90;;;;;;6278218;22;20008;-93
2023/03/28 06:38:20;;;;;;;20.00;18.05;;;12.40;99.90;;;;;;6262852;22;20014;-91
2023/03/28 06:40:51;;;;;;;20.17;18.23;;;12.40;99.90;;;;;;6228951;22;20011;-92
2023/03/28 06:43:17;;;;;;;20.85;18.73;;;12.40;99.90;;;;;;6247571;22;20318;-92
2023/03/28 06:46:05;;;;;;;21.10;19.20;;;12.40;99.90;;;;;;6273900;22;19999;-91
2023/03/28 06:48:32;;;;;;;20.17;18.40;;;12.40;99.90;;;;;;6277362;22;20022;-89
2023/03/28 06:51:22;;;;;;;20.30;18.60;;;12.60;99.90;;;;;;6235931;22;20074;-91
2023/03/28 06:53:48;;;;;;;19.85;18.42;;;12.60;99.90;;;;;;6277815;22;20082;-91
2023/03/28 06:56:18;;;;;;;21.08;19.02;;;12.80;99.90;;;;;;6276840;22;20012;-89
2023/03/28 06:58:44;;;;;;;19.48;18.17;;;12.80;99.90;;;;;;6277241;22;20060;-90
2023/03/28 07:01:13;;;;;;;19.90;18.60;;;12.90;99.90;;;;;;6276961;22;20019;-90
2023/03/28 07:03:45;;;;;;;20.70;18.65;;;13.10;99.90;;;;;;6277591;22;20008;-91
2023/03/28 09:01:05;;;;;;;25.00;22.90;;;13.60;99.90;;;;;;6104050;23;20814;31
2023/03/28 09:03:33;;;;;;;24.10;22.65;;;13.60;99.90;;;;;;6138942;22;20020;-90
2023/03/28 09:06:13;;;;;;;24.30;22.90;;;13.50;99.90;;;;;;6254114;22;20000;-91
2023/03/28 09:08:58;;;;;;;24.40;23.05;;;13.50;99.90;;;;;;6215438;22;20028;-86
2023/03/28 09:11:47;;;;;;;24.15;22.55;;;13.50;99.90;;;;;;6247990;23;20005;-83
2023/03/28 09:14:54;;;;;;;25.30;23.90;;;13.40;99.90;;;;;;6273451;22;20441;-84
2023/03/28 09:17:51;;;;;;;24.95;23.35;;;13.70;99.90;;;;;;6243063;23;20036;-87
2023/03/28 09:21:02;;;;;;;25.52;23.88;;;13.90;99.90;;;;;;6273591;22;20066;-82
2023/03/28 09:37:41;;;;;;;25.48;23.98;;;13.50;99.90;;;;;;6204550;22;20030;-93
2023/03/28 09:40:32;;;;;;;24.85;23.30;;;13.70;99.90;;;;;;6259124;22;20007;-92
2023/03/28 09:44:06;;;;;;;26.23;24.20;;;13.80;99.90;;;;;;6126563;22;20084;-93
2023/03/28 09:46:51;;;;;;;25.30;23.65;;;13.50;99.90;;;;;;6257284;22;20061;-90
2023/03/28 09:49:41;;;;;;;25.35;24.02;;;13.30;99.10;;;;;;6257951;22;20062;-75
2023/03/28 09:52:17;;;;;;;25.35;23.80;;;13.40;99.30;;;;;;6279134;22;20034;-83
2023/03/28 09:58:08;;;;;;;26.30;24.45;;;14.10;99.80;;;;;;6248783;22;20030;-93
2023/03/28 10:00:54;;;;;;;26.52;24.67;;;13.90;99.90;;;;;;6283042;22;20783;-92
2023/03/28 10:03:54;;;;;;;25.77;24.17;;;13.70;99.90;;;;;;6289725;22;20013;-93
2023/03/28 10:06:39;;;;;;;25.23;23.80;;;13.70;99.90;;;;;;6261140;22;20056;-94
2023/03/28 10:09:51;;;;;;;25.92;24.02;;;13.80;99.90;;;;;;6258071;22;20082;-91
2023/03/28 10:12:33;;;;;;;25.30;23.70;;;13.80;99.90;;;;;;6136936;23;20084;-92
2023/03/28 10:14:59;;;;;;;25.85;24.42;;;13.80;99.90;;;;;;6161604;23;20020;-91
2023/03/28 10:17:49;;;;;;;26.17;24.23;;;13.60;99.90;;;;;;6186780;23;20415;-92
2023/03/28 10:20:20;;;;;;;24.85;23.38;;;13.50;99.90;;;;;;6186035;23;20005;-91
2023/03/28 10:22:56;;;;;;;25.65;24.15;;;13.30;99.90;;;;;;6186714;23;20031;-92
2023/03/28 10:25:34;;;;;;;24.80;23.50;;;12.90;99.90;;;;;;6186475;23;20175;-91
2023/03/28 10:28:04;;;;;;;25.40;24.00;;;12.70;99.90;;;;;;6161845;23;20016;-93
2023/03/28 10:30:35;;;;;;;25.63;24.10;;;12.70;99.90;;;;;;6161371;23;20320;-91
2023/03/28 10:33:17;;;;;;;25.42;23.75;;;12.80;99.90;;;;;;6186200;23;20009;-93
2023/03/28 10:36:08;;;;;;;24.95;23.55;;;13.00;99.90;;;;;;6168683;23;20009;-92
2023/03/28 10:38:48;;;;;;;25.23;23.63;;;13.00;99.90;;;;;;6195891;23;20009;-92
2023/03/28 10:41:29;;;;;;;25.83;24.20;;;13.30;99.90;;;;;;6259442;22;20099;-89
